createdAt,value
2018-05-31T00:00:18.081Z,99.90
2018-05-31T00:02:46.002Z,99.90
2018-05-31T00:05:13.942Z,99.90
2018-05-31T00:07:41.869Z,99.90
2018-05-31T00:10:10.555Z,99.90
2018-05-31T00:12:39.234Z,99.90
2018-05-31T00:15:07.149Z,99.90
2018-05-31T00:17:35.082Z,99.90
2018-05-31T00:20:03.798Z,99.90
2018-05-31T00:22:31.748Z,99.90
2018-05-31T00:25:00.459Z,99.90
2018-05-31T00:27:28.374Z,99.90
2018-05-31T00:29:56.294Z,99.90
2018-05-31T00:32:24.268Z,99.90
2018-05-31T00:34:52.205Z,99.90
2018-05-31T00:37:20.922Z,99.90
2018-05-31T00:39:48.845Z,99.90
2018-05-31T00:42:16.825Z,99.90
2018-05-31T00:44:46.434Z,99.90
2018-05-31T00:47:14.553Z,99.90
2018-05-31T00:49:42.518Z,99.90
2018-05-31T00:52:10.455Z,99.90
2018-05-31T00:54:38.404Z,99.90
2018-05-31T00:57:06.366Z,99.90
2018-05-31T00:59:34.335Z,99.90
2018-05-31T01:02:02.257Z,99.90
2018-05-31T01:04:30.179Z,99.90
2018-05-31T01:06:58.135Z,99.90
2018-05-31T01:09:26.045Z,99.90
2018-05-31T01:11:54.917Z,99.90
2018-05-31T01:14:23.613Z,99.90
2018-05-31T01:16:51.538Z,99.90
2018-05-31T01:19:19.457Z,99.90
2018-05-31T01:21:47.402Z,99.90
2018-05-31T01:24:15.368Z,99.90
2018-05-31T01:26:43.303Z,99.90
2018-05-31T01:29:11.230Z,99.90
2018-05-31T01:31:39.915Z,99.90
2018-05-31T01:34:07.856Z,99.90
2018-05-31T01:36:35.792Z,99.90
2018-05-31T01:39:03.863Z,99.90
2018-05-31T01:41:31.830Z,99.90
2018-05-31T01:43:59.751Z,99.90
2018-05-31T01:46:27.667Z,99.90
2018-05-31T01:48:55.578Z,99.90
2018-05-31T01:51:23.625Z,99.90
2018-05-31T01:53:51.526Z,99.90
2018-05-31T01:56:19.486Z,99.90
2018-05-31T01:58:47.420Z,99.90
2018-05-31T02:01:15.342Z,99.90
2018-05-31T02:03:43.265Z,99.90
2018-05-31T02:06:11.190Z,99.90
2018-05-31T02:08:39.134Z,99.90
2018-05-31T02:11:07.122Z,99.90
2018-05-31T02:13:35.101Z,99.90
2018-05-31T02:16:03.040Z,99.90
2018-05-31T02:18:30.972Z,99.90
2018-05-31T02:20:58.873Z,99.90
2018-05-31T02:23:26.800Z,99.90
2018-05-31T02:25:55.553Z,99.90
2018-05-31T02:28:23.481Z,99.90
2018-05-31T02:30:51.392Z,99.90
2018-05-31T02:33:20.125Z,99.90
2018-05-31T02:35:48.058Z,99.90
2018-05-31T02:38:15.999Z,99.90
2018-05-31T02:40:43.951Z,99.90
2018-05-31T02:43:11.893Z,99.90
2018-05-31T02:45:40.570Z,99.90
2018-05-31T02:48:09.330Z,99.90
2018-05-31T02:50:37.293Z,99.90
2018-05-31T02:53:06.073Z,99.90
2018-05-31T02:55:34.048Z,99.90
2018-05-31T02:58:02.017Z,99.90
2018-05-31T03:00:29.945Z,99.90
2018-05-31T03:02:57.880Z,99.90
2018-05-31T03:05:25.863Z,99.90
2018-05-31T03:07:53.940Z,99.90
2018-05-31T03:10:22.610Z,99.90
2018-05-31T03:12:50.587Z,99.90
2018-05-31T03:15:18.508Z,99.90
2018-05-31T03:17:46.505Z,99.90
2018-05-31T03:20:14.440Z,99.90
2018-05-31T03:22:42.346Z,99.90
2018-05-31T03:25:10.278Z,99.90
2018-05-31T03:27:38.246Z,99.90
2018-05-31T03:30:06.216Z,99.90
2018-05-31T03:32:34.174Z,99.90
2018-05-31T03:35:02.119Z,99.90
2018-05-31T03:37:30.040Z,99.90
2018-05-31T03:39:57.974Z,99.90
2018-05-31T03:42:26.637Z,99.90
2018-05-31T03:44:54.581Z,99.90
2018-05-31T03:47:22.569Z,99.90
2018-05-31T03:49:50.552Z,99.90
2018-05-31T03:52:19.228Z,99.90
2018-05-31T03:54:47.154Z,99.90
2018-05-31T03:57:15.074Z,99.90
2018-05-31T03:59:43.061Z,99.90
2018-05-31T04:02:11.765Z,99.90
2018-05-31T04:04:39.679Z,99.90
2018-05-31T04:07:08.535Z,99.90
2018-05-31T04:09:36.491Z,99.90
2018-05-31T04:12:04.417Z,99.90
2018-05-31T04:14:32.386Z,99.90
2018-05-31T04:17:00.340Z,99.90
2018-05-31T04:19:28.316Z,99.90
2018-05-31T04:21:57.034Z,99.90
2018-05-31T04:24:24.978Z,99.90
2018-05-31T04:26:52.935Z,99.90
2018-05-31T04:29:20.880Z,99.90
2018-05-31T04:31:48.797Z,99.90
2018-05-31T04:34:17.518Z,99.90
2018-05-31T04:36:45.457Z,99.90
2018-05-31T04:39:13.400Z,99.90
2018-05-31T04:41:41.333Z,99.90
2018-05-31T04:44:09.293Z,99.90
2018-05-31T04:46:38.037Z,99.90
2018-05-31T04:49:05.999Z,99.90
2018-05-31T04:51:33.904Z,99.90
2018-05-31T04:54:01.827Z,99.90
2018-05-31T04:56:29.804Z,99.90
2018-05-31T04:58:57.731Z,99.90
2018-05-31T05:01:26.431Z,99.90
2018-05-31T05:03:54.426Z,99.90
2018-05-31T05:06:22.363Z,99.90
2018-05-31T05:08:50.375Z,99.90
2018-05-31T05:11:18.312Z,99.90
2018-05-31T05:13:46.317Z,99.90
2018-05-31T05:16:14.299Z,99.90
2018-05-31T05:18:42.276Z,99.90
2018-05-31T05:21:10.193Z,99.90
2018-05-31T05:23:38.128Z,99.90
2018-05-31T05:26:06.106Z,99.90
2018-05-31T05:28:34.871Z,99.90
2018-05-31T05:31:02.812Z,99.90
2018-05-31T05:33:30.736Z,99.90
2018-05-31T05:35:58.648Z,99.90
2018-05-31T05:38:26.666Z,99.90
2018-05-31T05:40:54.589Z,99.90
2018-05-31T05:43:22.555Z,99.90
2018-05-31T05:45:50.481Z,99.90
2018-05-31T05:48:18.430Z,99.90
2018-05-31T05:50:46.390Z,99.90
2018-05-31T05:53:14.431Z,99.90
2018-05-31T05:55:42.352Z,99.90
2018-05-31T05:58:12.263Z,99.90
2018-05-31T06:00:40.210Z,99.90
2018-05-31T06:03:08.221Z,99.90
2018-05-31T06:05:36.995Z,99.90
2018-05-31T06:08:04.968Z,99.90
2018-05-31T06:10:32.964Z,99.90
2018-05-31T06:13:00.924Z,99.90
2018-05-31T06:15:29.618Z,99.90
2018-05-31T06:17:57.591Z,99.90
2018-05-31T06:20:25.561Z,99.90
2018-05-31T06:22:54.241Z,99.90
2018-05-31T06:25:22.148Z,99.90
2018-05-31T06:27:50.064Z,99.90
2018-05-31T06:30:18.039Z,99.90
2018-05-31T06:32:46.005Z,99.90
2018-05-31T06:35:13.946Z,99.90
2018-05-31T06:37:41.855Z,99.90
2018-05-31T06:40:09.764Z,99.90
2018-05-31T06:42:38.935Z,99.90
2018-05-31T06:45:08.168Z,99.90
2018-05-31T06:47:37.424Z,99.90
2018-05-31T06:50:06.645Z,99.90
2018-05-31T06:52:35.933Z,99.90
2018-05-31T06:55:05.347Z,99.90
2018-05-31T06:57:34.429Z,99.90
2018-05-31T07:00:02.479Z,99.90
2018-05-31T07:02:30.388Z,99.90
2018-05-31T07:04:59.095Z,99.90
2018-05-31T07:07:27.009Z,99.90
2018-05-31T07:09:54.976Z,99.70
2018-05-31T07:12:22.986Z,98.20
2018-05-31T07:14:51.660Z,98.50
2018-05-31T07:17:22.601Z,98.40
2018-05-31T07:19:55.108Z,97.60
2018-05-31T07:22:24.028Z,98.70
2018-05-31T07:24:51.935Z,98.50
2018-05-31T07:27:20.707Z,99.90
2018-05-31T07:29:49.415Z,99.90
2018-05-31T07:32:17.309Z,99.90
2018-05-31T07:34:45.249Z,99.80
2018-05-31T07:37:13.154Z,98.90
2018-05-31T07:39:41.064Z,99.90
2018-05-31T07:42:08.961Z,98.90
2018-05-31T07:44:36.897Z,99.90
2018-05-31T07:47:04.960Z,99.40
2018-05-31T07:49:35.152Z,95.80
2018-05-31T07:52:03.324Z,95.90
2018-05-31T07:54:31.335Z,95.20
2018-05-31T07:56:59.230Z,97.00
2018-05-31T07:59:27.207Z,97.40
2018-05-31T08:01:55.881Z,97.90
2018-05-31T08:04:23.845Z,97.90
2018-05-31T08:06:51.820Z,97.80
2018-05-31T08:09:19.731Z,95.30
2018-05-31T08:11:47.665Z,95.40
2018-05-31T08:14:15.566Z,95.60
2018-05-31T08:16:50.523Z,93.10
2018-05-31T08:19:18.493Z,93.10
2018-05-31T08:21:46.426Z,94.40
2018-05-31T08:24:15.188Z,99.20
2018-05-31T08:26:43.128Z,99.20
2018-05-31T08:29:11.872Z,95.60
2018-05-31T08:31:40.635Z,94.40
2018-05-31T08:34:09.737Z,94.40
2018-05-31T08:36:39.023Z,91.60
2018-05-31T08:39:07.920Z,90.60
2018-05-31T08:41:35.857Z,90.60
2018-05-31T08:44:03.993Z,92.90
2018-05-31T08:46:32.709Z,82.60
2018-05-31T08:49:00.637Z,82.50
2018-05-31T08:51:28.575Z,74.60
2018-05-31T08:53:56.513Z,74.90
2018-05-31T08:56:24.428Z,66.80
2018-05-31T08:58:52.336Z,65.10
2018-05-31T09:01:21.039Z,60.20
2018-05-31T09:03:50.817Z,60.20
2018-05-31T09:06:18.733Z,60.00
2018-05-31T09:08:47.150Z,56.60
2018-05-31T09:11:15.431Z,55.50
2018-05-31T09:13:43.700Z,56.40
2018-05-31T09:16:11.891Z,56.00
2018-05-31T09:18:39.887Z,59.10
2018-05-31T09:21:07.847Z,59.70
2018-05-31T09:23:36.518Z,55.70
2018-05-31T09:26:04.460Z,55.60
2018-05-31T09:28:32.397Z,55.10
2018-05-31T09:31:00.595Z,55.30
2018-05-31T09:33:28.610Z,51.20
2018-05-31T09:35:56.561Z,50.70
2018-05-31T09:38:24.493Z,49.00
2018-05-31T09:40:52.413Z,49.30
2018-05-31T09:43:20.369Z,50.00
2018-05-31T09:45:48.291Z,50.50
2018-05-31T09:48:16.205Z,49.20
2018-05-31T09:50:44.203Z,51.30
2018-05-31T09:53:12.919Z,52.10
2018-05-31T09:55:40.844Z,52.10
2018-05-31T09:58:09.007Z,51.40
2018-05-31T10:00:38.769Z,54.10
2018-05-31T10:03:06.720Z,53.60
2018-05-31T10:05:35.629Z,52.80
2018-05-31T10:08:03.548Z,52.70
2018-05-31T10:10:31.490Z,50.60
2018-05-31T10:12:59.383Z,51.10
2018-05-31T10:15:27.325Z,50.00
2018-05-31T10:17:55.244Z,50.00
2018-05-31T10:20:23.149Z,51.20
2018-05-31T10:22:51.091Z,51.30
2018-05-31T10:25:19.064Z,52.00
2018-05-31T10:27:47.069Z,52.20
2018-05-31T10:30:15.029Z,49.80
2018-05-31T10:32:43.007Z,51.90
2018-05-31T10:35:10.963Z,53.70
2018-05-31T10:37:38.894Z,52.80
2018-05-31T10:40:10.277Z,50.00
2018-05-31T10:42:38.962Z,51.00
2018-05-31T10:45:07.721Z,54.20
2018-05-31T10:47:35.711Z,54.20
2018-05-31T10:50:04.461Z,51.50
2018-05-31T10:52:32.369Z,51.40
2018-05-31T10:55:00.276Z,52.30
2018-05-31T10:57:28.182Z,53.50
2018-05-31T10:59:56.136Z,52.90
2018-05-31T11:02:24.097Z,53.00
2018-05-31T11:04:52.033Z,51.70
2018-05-31T11:07:19.922Z,52.50
2018-05-31T11:09:47.925Z,54.10
2018-05-31T11:12:15.959Z,51.30
2018-05-31T11:14:43.930Z,51.10
2018-05-31T11:17:11.846Z,51.70
2018-05-31T11:19:39.826Z,51.80
2018-05-31T11:22:07.820Z,49.90
2018-05-31T11:24:36.554Z,49.00
2018-05-31T11:27:04.510Z,49.00
2018-05-31T11:29:32.656Z,48.70
2018-05-31T11:32:01.394Z,50.50
2018-05-31T11:34:29.326Z,50.50
2018-05-31T11:36:57.311Z,48.60
2018-05-31T11:39:25.242Z,49.80
2018-05-31T11:41:53.197Z,49.80
2018-05-31T11:44:21.155Z,48.60
2018-05-31T11:46:49.138Z,51.10
2018-05-31T11:49:18.417Z,51.60
2018-05-31T11:51:47.175Z,50.70
2018-05-31T11:54:15.895Z,50.60
2018-05-31T11:56:43.864Z,50.50
2018-05-31T11:59:11.828Z,52.80
2018-05-31T12:01:39.812Z,51.60
2018-05-31T12:04:07.830Z,52.60
2018-05-31T12:06:35.796Z,53.10
2018-05-31T12:09:03.822Z,53.30
2018-05-31T12:11:31.743Z,56.10
2018-05-31T12:14:00.683Z,54.20
2018-05-31T12:16:29.401Z,53.80
2018-05-31T12:18:57.740Z,54.20
2018-05-31T12:21:25.729Z,50.70
2018-05-31T12:23:53.689Z,50.00
2018-05-31T12:26:21.630Z,52.00
2018-05-31T12:28:49.588Z,52.30
2018-05-31T12:31:17.520Z,53.20
2018-05-31T12:33:45.491Z,56.20
2018-05-31T12:36:13.439Z,54.90
2018-05-31T12:38:41.373Z,54.40
2018-05-31T12:41:09.359Z,55.20
2018-05-31T12:43:37.304Z,54.10
2018-05-31T12:46:05.245Z,54.00
2018-05-31T12:48:33.344Z,54.80
2018-05-31T12:51:02.390Z,53.90
2018-05-31T12:53:30.378Z,54.40
2018-05-31T12:55:58.300Z,54.70
2018-05-31T12:58:27.017Z,54.70
2018-05-31T13:00:54.972Z,54.70
2018-05-31T13:03:22.894Z,55.20
2018-05-31T13:05:51.668Z,55.60
2018-05-31T13:08:19.641Z,55.60
2018-05-31T13:10:47.589Z,57.70
2018-05-31T13:13:15.513Z,57.80
2018-05-31T13:15:43.477Z,59.20
2018-05-31T13:18:11.430Z,62.40
2018-05-31T13:20:40.129Z,70.10
2018-05-31T13:23:08.841Z,91.30
2018-05-31T13:25:36.815Z,91.30
2018-05-31T13:28:04.735Z,99.90
2018-05-31T13:30:32.639Z,99.90
2018-05-31T13:33:00.557Z,99.90
2018-05-31T13:35:28.552Z,99.90
2018-05-31T13:37:57.241Z,99.90
2018-05-31T13:40:25.950Z,95.40
2018-05-31T13:42:53.859Z,95.20
2018-05-31T13:45:21.849Z,94.80
2018-05-31T13:47:49.799Z,92.30
2018-05-31T13:50:17.775Z,91.60
2018-05-31T13:52:45.684Z,79.40
2018-05-31T13:55:13.916Z,90.80
2018-05-31T13:57:41.863Z,89.60
2018-05-31T14:00:09.786Z,69.30
2018-05-31T14:02:38.504Z,70.90
2018-05-31T14:05:06.583Z,71.30
2018-05-31T14:07:34.525Z,76.20
2018-05-31T14:10:03.236Z,69.10
2018-05-31T14:12:31.204Z,69.10
2018-05-31T14:14:59.941Z,60.40
2018-05-31T14:17:27.838Z,60.40
2018-05-31T14:19:56.509Z,58.80
2018-05-31T14:22:24.409Z,58.70
2018-05-31T14:24:52.307Z,66.70
2018-05-31T14:27:20.246Z,66.00
2018-05-31T14:29:48.178Z,71.30
2018-05-31T14:32:16.122Z,66.30
2018-05-31T14:34:44.043Z,64.70
2018-05-31T14:37:12.722Z,61.00
2018-05-31T14:39:41.614Z,60.80
2018-05-31T14:42:09.554Z,60.70
2018-05-31T14:44:37.461Z,65.50
2018-05-31T14:47:06.538Z,60.20
2018-05-31T14:49:35.253Z,64.00
2018-05-31T14:52:03.213Z,64.10
2018-05-31T14:54:31.149Z,64.20
2018-05-31T14:56:59.159Z,66.30
2018-05-31T14:59:27.901Z,68.20
2018-05-31T15:01:55.833Z,68.10
2018-05-31T15:04:24.705Z,70.00
2018-05-31T15:06:52.665Z,68.60
2018-05-31T15:09:21.375Z,69.10
2018-05-31T15:11:49.308Z,69.10
2018-05-31T15:14:17.348Z,74.00
2018-05-31T15:16:45.361Z,72.80
2018-05-31T15:19:13.344Z,70.10
2018-05-31T15:21:41.292Z,72.40
2018-05-31T15:24:09.262Z,70.90
2018-05-31T15:26:37.183Z,73.80
2018-05-31T15:29:05.126Z,75.50
2018-05-31T15:31:33.056Z,77.50
2018-05-31T15:34:01.031Z,72.30
2018-05-31T15:36:29.128Z,76.00
2018-05-31T15:38:57.800Z,69.70
2018-05-31T15:41:25.715Z,69.60
2018-05-31T15:43:53.629Z,71.10
2018-05-31T15:46:21.553Z,81.50
2018-05-31T15:48:49.482Z,70.60
2018-05-31T15:51:17.474Z,72.60
2018-05-31T15:53:46.198Z,70.10
2018-05-31T15:56:14.139Z,70.10
2018-05-31T15:58:42.069Z,72.10
2018-05-31T16:01:09.966Z,71.60
2018-05-31T16:03:38.656Z,82.70
2018-05-31T16:06:07.361Z,82.00
2018-05-31T16:08:35.692Z,81.90
2018-05-31T16:11:04.394Z,78.00
2018-05-31T16:13:32.350Z,77.80
2018-05-31T16:16:00.354Z,81.50
2018-05-31T16:18:28.288Z,85.20
2018-05-31T16:20:56.224Z,83.90
2018-05-31T16:23:24.199Z,84.80
2018-05-31T16:25:52.167Z,88.80
2018-05-31T16:28:20.123Z,83.90
2018-05-31T16:30:48.095Z,78.90
2018-05-31T16:33:16.006Z,82.80
2018-05-31T16:35:43.922Z,90.30
2018-05-31T16:38:11.863Z,93.50
2018-05-31T16:40:39.773Z,96.10
2018-05-31T16:43:07.792Z,98.40
2018-05-31T16:45:35.705Z,97.60
2018-05-31T16:48:03.662Z,97.70
2018-05-31T16:50:31.562Z,98.00
2018-05-31T16:52:59.514Z,99.90
2018-05-31T16:55:27.449Z,99.90
2018-05-31T16:57:55.427Z,97.90
2018-05-31T17:00:23.362Z,95.00
2018-05-31T17:02:51.321Z,92.00
2018-05-31T17:05:19.330Z,92.70
2018-05-31T17:07:50.370Z,91.90
2018-05-31T17:10:18.530Z,95.20
2018-05-31T17:12:46.509Z,91.90
2018-05-31T17:15:14.433Z,91.80
2018-05-31T17:17:42.730Z,91.30
2018-05-31T17:20:10.663Z,88.40
2018-05-31T17:22:38.548Z,86.40
2018-05-31T17:25:06.460Z,91.70
2018-05-31T17:27:34.438Z,89.30
2018-05-31T17:30:03.193Z,91.90
2018-05-31T17:32:33.566Z,91.90
2018-05-31T17:35:02.244Z,94.90
2018-05-31T17:37:32.190Z,94.80
2018-05-31T17:40:00.153Z,98.80
2018-05-31T17:42:28.060Z,94.20
2018-05-31T17:44:56.320Z,97.40
2018-05-31T17:47:24.385Z,99.20
2018-05-31T17:49:55.752Z,99.90
2018-05-31T17:52:23.874Z,99.90
2018-05-31T17:54:52.555Z,99.90
2018-05-31T17:57:21.238Z,99.90
2018-05-31T17:59:49.150Z,99.90
2018-05-31T18:02:17.058Z,99.90
2018-05-31T18:04:44.981Z,99.90
2018-05-31T18:07:12.895Z,99.90
2018-05-31T18:09:40.834Z,99.90
2018-05-31T18:12:08.774Z,99.90
2018-05-31T18:14:37.434Z,99.90
2018-05-31T18:17:05.376Z,99.90
2018-05-31T18:19:33.297Z,99.90
2018-05-31T18:22:01.988Z,99.90
2018-05-31T18:24:29.908Z,99.90
2018-05-31T18:26:58.415Z,99.90
2018-05-31T18:29:26.377Z,99.90
2018-05-31T18:31:54.312Z,99.90
2018-05-31T18:34:22.229Z,99.90
2018-05-31T18:36:50.183Z,99.90
2018-05-31T18:39:18.084Z,99.90
2018-05-31T18:41:46.854Z,99.90
2018-05-31T18:44:14.769Z,99.90
2018-05-31T18:46:42.685Z,99.90
2018-05-31T18:49:10.640Z,99.90
2018-05-31T18:51:38.617Z,99.90
2018-05-31T18:54:06.572Z,99.90
2018-05-31T18:56:34.495Z,99.90
2018-05-31T18:59:02.415Z,99.90
2018-05-31T19:01:30.394Z,99.90
2018-05-31T19:03:58.330Z,99.90
2018-05-31T19:06:26.349Z,99.90
2018-05-31T19:08:54.254Z,99.90
2018-05-31T19:11:22.295Z,99.90
2018-05-31T19:13:56.345Z,99.90
2018-05-31T19:16:25.290Z,99.90
2018-05-31T19:18:58.687Z,99.90
2018-05-31T19:21:26.825Z,99.90
2018-05-31T19:23:54.853Z,99.90
2018-05-31T19:26:26.708Z,99.90
2018-05-31T19:28:55.612Z,99.90
2018-05-31T19:31:24.415Z,99.90
2018-05-31T19:33:52.329Z,99.90
2018-05-31T19:36:25.731Z,99.90
2018-05-31T19:38:53.657Z,99.90
2018-05-31T19:41:21.571Z,99.90
2018-05-31T19:43:55.170Z,99.90
2018-05-31T19:46:23.906Z,99.90
2018-05-31T19:48:52.341Z,99.90
2018-05-31T19:51:26.101Z,99.90
2018-05-31T19:53:57.349Z,99.90
2018-05-31T19:56:27.898Z,99.90
2018-05-31T19:59:03.833Z,99.90
2018-05-31T20:01:38.722Z,99.90
2018-05-31T20:04:10.688Z,99.90
2018-05-31T20:06:41.702Z,99.90
2018-05-31T20:09:12.041Z,99.90
2018-05-31T20:11:42.314Z,99.90
2018-05-31T20:14:13.181Z,99.90
2018-05-31T20:16:44.296Z,99.90
2018-05-31T20:19:14.819Z,99.90
2018-05-31T20:21:44.002Z,99.90
2018-05-31T20:24:13.145Z,99.90
2018-05-31T20:26:42.192Z,99.90
2018-05-31T20:29:11.335Z,99.90
2018-05-31T20:31:40.349Z,99.90
2018-05-31T20:34:11.001Z,99.90
2018-05-31T20:36:38.918Z,99.90
2018-05-31T20:39:06.834Z,99.90
2018-05-31T20:41:34.730Z,99.90
2018-05-31T20:44:02.644Z,99.90
2018-05-31T20:46:30.551Z,99.90
2018-05-31T20:48:58.447Z,99.90
2018-05-31T20:51:27.140Z,99.90
2018-05-31T20:53:55.822Z,99.90
2018-05-31T20:56:24.538Z,99.90
2018-05-31T20:58:52.441Z,99.90
2018-05-31T21:01:20.545Z,99.90
2018-05-31T21:03:49.245Z,99.90
2018-05-31T21:06:17.344Z,99.90
2018-05-31T21:08:45.502Z,99.90
2018-05-31T21:11:13.437Z,99.90
2018-05-31T21:13:41.554Z,99.90
2018-05-31T21:16:09.520Z,99.90
2018-05-31T21:18:37.431Z,99.90
2018-05-31T21:21:05.333Z,99.90
2018-05-31T21:23:33.240Z,99.90
2018-05-31T21:26:01.248Z,99.90
2018-05-31T21:28:29.279Z,99.90
2018-05-31T21:30:57.203Z,99.90
2018-05-31T21:33:25.113Z,99.90
2018-05-31T21:35:53.066Z,99.90
2018-05-31T21:38:20.972Z,99.90
2018-05-31T21:40:50.618Z,99.90
2018-05-31T21:43:20.005Z,99.90
2018-05-31T21:45:48.050Z,99.90
2018-05-31T21:48:15.987Z,99.90
2018-05-31T21:50:43.927Z,99.90
2018-05-31T21:53:11.832Z,99.90
2018-05-31T21:55:39.749Z,99.90
2018-05-31T21:58:07.651Z,99.90
2018-05-31T22:00:43.624Z,99.90
2018-05-31T22:03:11.617Z,99.90
2018-05-31T22:05:39.555Z,99.90
2018-05-31T22:08:07.622Z,99.90
2018-05-31T22:10:36.314Z,99.90
2018-05-31T22:13:04.278Z,99.90
2018-05-31T22:15:32.948Z,99.90
2018-05-31T22:18:00.886Z,99.90
2018-05-31T22:20:28.849Z,99.90
2018-05-31T22:22:56.852Z,99.90
2018-05-31T22:25:24.758Z,99.90
2018-05-31T22:27:52.759Z,99.90
2018-05-31T22:30:20.668Z,99.90
2018-05-31T22:32:49.514Z,99.90
2018-05-31T22:35:17.886Z,99.90
2018-05-31T22:37:45.806Z,99.90
2018-05-31T22:40:16.864Z,99.90
2018-05-31T22:42:45.321Z,99.90
2018-05-31T22:45:13.669Z,99.90
2018-05-31T22:47:44.574Z,99.90
2018-05-31T22:50:19.346Z,99.90
2018-05-31T22:52:52.498Z,99.90
2018-05-31T22:55:24.743Z,99.90
2018-05-31T22:57:56.136Z,99.90
2018-05-31T23:00:27.390Z,99.90
2018-05-31T23:02:59.690Z,99.90
2018-05-31T23:05:31.228Z,99.90
2018-05-31T23:08:03.469Z,99.90
2018-05-31T23:10:35.361Z,99.90
2018-05-31T23:13:06.498Z,99.90
2018-05-31T23:15:37.556Z,99.90
2018-05-31T23:18:09.326Z,99.90
2018-05-31T23:20:39.852Z,99.90
2018-05-31T23:23:10.923Z,99.90
2018-05-31T23:25:41.711Z,99.90
2018-05-31T23:28:12.817Z,99.90
2018-05-31T23:30:43.430Z,99.90
2018-05-31T23:33:11.609Z,99.90
2018-05-31T23:35:39.555Z,99.90
2018-05-31T23:38:07.457Z,99.90
2018-05-31T23:40:35.365Z,99.90
2018-05-31T23:43:03.250Z,99.90
2018-05-31T23:45:31.170Z,99.90
2018-05-31T23:47:59.065Z,99.90
2018-05-31T23:50:26.971Z,99.90
2018-05-31T23:52:54.898Z,99.90
2018-05-31T23:55:22.792Z,99.90
2018-05-31T23:57:50.683Z,99.90
